Time;durP1;ratioP1;P1;durP2;ratioP2;P2;SDS_P1;SDS_P2;PMS_P1;PMS_P2;Temp;Humidity;BMP_temperature;BMP_pressure;BME280_temperature;BME280_humidity;BME280_pressure;Samples;Min_cycle;Max_cycle;Signal;HPM_P1;HPM_P2
2021/12/11 00:00:19;;;;;;;30.90;17.83;;;0.10;99.90;;;;;;4971620;28;20148;-61
2021/12/11 00:02:54;;;;;;;30.20;15.90;;;0.10;99.90;;;;;;4938196;28;21311;-61
2021/12/11 00:05:19;;;;;;;22.08;13.25;;;0.10;99.90;;;;;;4955353;28;20394;-60
2021/12/11 00:07:46;;;;;;;19.92;12.60;;;0.20;99.90;;;;;;4981496;28;20139;-61
2021/12/11 00:10:24;;;;;;;18.60;11.90;;;0.20;99.90;;;;;;4977519;28;20042;-61
2021/12/11 00:12:57;;;;;;;24.67;14.15;;;0.30;99.90;;;;;;4938026;28;20176;-61
2021/12/11 00:15:36;;;;;;;20.38;12.30;;;0.30;99.90;;;;;;4958042;28;20145;-61
2021/12/11 00:18:17;;;;;;;14.63;10.10;;;0.30;99.90;;;;;;4922520;28;20037;-61
2021/12/11 00:20:50;;;;;;;15.48;10.73;;;0.30;99.90;;;;;;4913995;28;20450;-61
2021/12/11 00:23:52;;;;;;;19.60;12.10;;;0.30;99.90;;;;;;4915547;28;20132;-60
2021/12/11 00:26:28;;;;;;;17.58;10.65;;;0.30;99.90;;;;;;4948853;28;20046;-61
2021/12/11 00:28:55;;;;;;;20.17;11.07;;;0.30;99.90;;;;;;4911706;28;20042;-61
2021/12/11 00:31:22;;;;;;;21.35;13.77;;;0.30;99.90;;;;;;4945411;28;20402;-61
2021/12/11 00:33:50;;;;;;;20.07;13.07;;;0.30;99.90;;;;;;4930825;28;20050;-61
2021/12/11 00:36:20;;;;;;;26.05;13.48;;;0.30;99.90;;;;;;4941005;28;20088;-61
2021/12/11 00:38:49;;;;;;;16.95;11.73;;;0.30;99.90;;;;;;4949616;28;20049;-61
2021/12/11 00:41:18;;;;;;;21.13;13.80;;;0.30;99.90;;;;;;4960962;28;20164;-62
2021/12/11 00:43:45;;;;;;;19.27;12.45;;;0.30;99.90;;;;;;4942179;28;20061;-61
2021/12/11 00:46:16;;;;;;;23.75;15.82;;;0.30;99.90;;;;;;4964942;28;20248;-61
2021/12/11 00:48:42;;;;;;;21.60;13.40;;;0.30;99.90;;;;;;4958807;28;20046;-61
2021/12/11 00:51:18;;;;;;;25.27;14.77;;;0.30;99.90;;;;;;4918670;28;20046;-61
2021/12/11 00:53:52;;;;;;;23.40;14.90;;;0.30;99.90;;;;;;4958408;28;21095;-62
2021/12/11 00:56:21;;;;;;;20.88;13.18;;;0.30;99.90;;;;;;4937472;28;20148;-62
2021/12/11 00:58:50;;;;;;;17.00;11.77;;;0.30;99.90;;;;;;4935170;28;20053;-61
2021/12/11 01:01:32;;;;;;;21.63;13.55;;;0.50;99.90;;;;;;4953401;28;22116;-62
2021/12/11 01:03:59;;;;;;;23.33;13.38;;;0.30;99.90;;;;;;4939091;28;20045;-62
2021/12/11 01:06:35;;;;;;;22.88;12.77;;;0.20;99.90;;;;;;4984654;23;20045;-58
2021/12/11 01:09:05;;;;;;;26.13;15.65;;;0.20;99.90;;;;;;4951849;28;20049;-58
2021/12/11 01:11:36;;;;;;;22.90;13.32;;;0.10;99.90;;;;;;4957408;28;20708;-51
2021/12/11 01:14:22;;;;;;;22.08;12.65;;;0.10;99.90;;;;;;4938132;28;21421;-58
2021/12/11 01:16:58;;;;;;;22.08;14.43;;;0.00;99.90;;;;;;4926906;28;20475;-56
2021/12/11 01:19:28;;;;;;;20.60;12.67;;;0.00;99.90;;;;;;4944781;28;20119;-57
2021/12/11 01:21:58;;;;;;;23.07;14.63;;;-0.10;99.90;;;;;;4929724;28;20054;-57
2021/12/11 01:24:31;;;;;;;24.95;15.73;;;-0.10;99.90;;;;;;4929669;28;20069;-58
2021/12/11 01:27:00;;;;;;;28.88;16.45;;;-0.10;99.90;;;;;;4916706;28;20112;-52
2021/12/11 01:29:28;;;;;;;29.70;17.35;;;-0.10;99.90;;;;;;4924570;28;20076;-56
2021/12/11 01:31:56;;;;;;;27.73;17.20;;;-0.10;99.90;;;;;;4929473;28;20037;-58
2021/12/11 01:34:24;;;;;;;32.38;18.90;;;-0.20;99.90;;;;;;4915449;28;20413;-54
2021/12/11 01:36:51;;;;;;;26.63;16.23;;;-0.20;99.90;;;;;;4919633;28;20060;-58
2021/12/11 01:39:23;;;;;;;28.05;16.30;;;-0.20;99.90;;;;;;4929576;28;21731;-54
2021/12/11 01:41:51;;;;;;;29.17;15.93;;;-0.30;99.90;;;;;;4927880;28;20792;-53
2021/12/11 01:44:29;;;;;;;25.58;15.20;;;-0.20;99.90;;;;;;4924902;28;21528;-56
2021/12/11 01:47:26;;;;;;;31.70;16.53;;;-0.30;99.90;;;;;;4941328;28;20772;-57
2021/12/11 01:49:55;;;;;;;28.33;16.73;;;-0.30;99.90;;;;;;4941596;28;20092;-54
2021/12/11 01:52:31;;;;;;;34.00;18.50;;;-0.30;99.90;;;;;;4951383;28;20567;-56
2021/12/11 01:54:57;;;;;;;28.73;16.10;;;-0.30;99.90;;;;;;4961110;28;20061;-54
2021/12/11 01:57:28;;;;;;;25.00;14.93;;;-0.50;99.90;;;;;;4926276;28;20235;-57
2021/12/11 01:59:59;;;;;;;27.52;16.20;;;-0.30;99.90;;;;;;4964030;28;20057;-55
2021/12/11 02:02:33;;;;;;;25.70;16.13;;;-0.30;99.90;;;;;;4931305;28;20095;-57
2021/12/11 02:04:59;;;;;;;29.85;15.80;;;-0.30;99.90;;;;;;4926603;28;20539;-56
2021/12/11 02:07:35;;;;;;;34.63;18.73;;;-0.40;99.90;;;;;;4934880;28;20041;-57
2021/12/11 02:10:01;;;;;;;28.37;16.87;;;-0.30;99.90;;;;;;4921134;28;21096;-58
2021/12/11 02:12:39;;;;;;;30.30;18.30;;;-0.40;99.90;;;;;;4964848;28;20046;-54
2021/12/11 02:15:12;;;;;;;36.47;18.60;;;-0.40;99.90;;;;;;4976528;28;20412;-55
2021/12/11 02:17:46;;;;;;;35.53;17.95;;;-0.40;99.90;;;;;;4945860;28;20519;-55
2021/12/11 02:20:19;;;;;;;27.27;16.48;;;-0.40;99.90;;;;;;4936405;28;20588;-52
2021/12/11 02:22:48;;;;;;;28.40;17.08;;;-0.50;99.90;;;;;;4936227;28;20343;-58
2021/12/11 02:25:22;;;;;;;38.67;19.27;;;-0.50;99.90;;;;;;4942671;28;21645;-57
2021/12/11 02:28:20;;;;;;;32.33;18.80;;;-0.50;99.90;;;;;;4939169;28;20112;-51
2021/12/11 02:31:27;;;;;;;27.87;17.27;;;-0.50;99.90;;;;;;4938829;28;20375;-58
2021/12/11 02:34:13;;;;;;;27.83;17.00;;;-0.50;99.90;;;;;;4939939;28;20176;-54
2021/12/11 02:37:11;;;;;;;28.80;16.67;;;-0.50;99.90;;;;;;4963946;28;20125;-57
2021/12/11 02:39:43;;;;;;;26.47;17.07;;;-0.50;99.90;;;;;;4937838;28;20137;-58
2021/12/11 02:42:30;;;;;;;31.07;17.63;;;-0.60;99.90;;;;;;4928248;28;20408;-58
2021/12/11 02:45:20;;;;;;;24.53;14.60;;;-0.60;99.90;;;;;;4947195;28;20666;-54
2021/12/11 02:47:56;;;;;;;25.70;16.37;;;-0.60;99.90;;;;;;4948040;28;20044;-58
2021/12/11 02:50:37;;;;;;;31.43;19.73;;;-0.60;99.90;;;;;;4935905;28;20061;-58
2021/12/11 02:53:09;;;;;;;30.40;18.47;;;-0.60;99.90;;;;;;4930911;28;20042;-57
2021/12/11 02:55:41;;;;;;;29.80;18.73;;;-0.60;99.90;;;;;;4937198;28;20851;-56
2021/12/11 02:58:15;;;;;;;31.27;18.23;;;-0.60;99.90;;;;;;4940027;28;20045;-56
2021/12/11 03:01:07;;;;;;;27.87;16.90;;;-0.60;99.90;;;;;;4935321;28;20503;-57
2021/12/11 03:03:39;;;;;;;29.60;17.73;;;-0.60;99.90;;;;;;4952203;28;20042;-57
2021/12/11 03:06:20;;;;;;;30.43;18.10;;;-0.60;99.90;;;;;;4928818;28;20041;-58
2021/12/11 03:08:47;;;;;;;34.07;20.20;;;-0.60;99.90;;;;;;4938011;28;20056;-56
2021/12/11 03:11:17;;;;;;;36.03;18.93;;;-0.60;99.90;;;;;;4931239;28;20145;-58
2021/12/11 03:13:50;;;;;;;32.70;18.43;;;-0.50;99.90;;;;;;4962539;28;20049;-57
2021/12/11 03:16:23;;;;;;;30.77;18.47;;;-0.50;99.90;;;;;;4949372;28;20073;-57
2021/12/11 03:18:50;;;;;;;29.93;18.30;;;-0.50;99.90;;;;;;4942184;28;20301;-55
2021/12/11 03:21:15;;;;;;;32.43;18.23;;;-0.50;99.90;;;;;;4962975;28;20068;-59
2021/12/11 03:23:41;;;;;;;32.27;18.33;;;-0.50;99.90;;;;;;4947042;28;20481;-59
2021/12/11 03:26:07;;;;;;;28.37;17.07;;;-0.60;99.90;;;;;;4961102;28;20759;-58
2021/12/11 03:28:33;;;;;;;30.33;18.47;;;-0.60;99.90;;;;;;4948893;28;20397;-58
2021/12/11 03:31:01;;;;;;;34.23;18.60;;;-0.60;99.90;;;;;;4949371;28;20124;-58
2021/12/11 03:33:36;;;;;;;24.73;15.13;;;-0.60;99.90;;;;;;4938614;28;20048;-58
2021/12/11 03:36:04;;;;;;;29.03;17.20;;;-0.60;99.90;;;;;;4941632;28;20050;-58
2021/12/11 03:38:31;;;;;;;27.33;17.67;;;-0.70;99.90;;;;;;4920991;28;20065;-57
2021/12/11 03:40:58;;;;;;;30.20;18.27;;;-0.70;99.90;;;;;;4938788;28;20050;-57
2021/12/11 03:43:27;;;;;;;32.77;20.47;;;-0.70;99.90;;;;;;4936387;28;20049;-59
2021/12/11 03:45:56;;;;;;;27.00;17.00;;;-0.70;99.90;;;;;;4932763;28;20129;-58
2021/12/11 03:48:32;;;;;;;32.77;19.13;;;-0.70;99.90;;;;;;4953427;28;20120;-57
2021/12/11 03:51:01;;;;;;;29.13;18.47;;;-0.70;99.90;;;;;;4938347;28;20069;-57
2021/12/11 03:53:27;;;;;;;33.57;18.63;;;-0.70;99.90;;;;;;4935708;28;20042;-58
2021/12/11 03:55:56;;;;;;;31.03;17.83;;;-0.60;99.90;;;;;;4938748;28;20037;-58
2021/12/11 03:58:23;;;;;;;29.20;17.37;;;-0.60;99.90;;;;;;4956789;28;20070;-57
2021/12/11 04:00:54;;;;;;;31.30;19.03;;;-0.60;99.90;;;;;;4941123;28;20115;-53
2021/12/11 04:03:24;;;;;;;25.83;16.33;;;-0.60;99.90;;;;;;4945932;28;20052;-56
2021/12/11 04:05:50;;;;;;;29.23;15.63;;;-0.70;99.90;;;;;;4955127;28;20035;-55
2021/12/11 04:08:24;;;;;;;22.87;14.50;;;-0.70;99.90;;;;;;4931315;28;20133;-56
2021/12/11 04:10:50;;;;;;;30.92;18.50;;;-0.70;99.90;;;;;;4946145;28;20042;-53
2021/12/11 04:13:17;;;;;;;30.27;15.00;;;-0.80;99.90;;;;;;4922829;28;20061;-55
2021/12/11 04:15:45;;;;;;;34.90;19.70;;;-0.80;99.90;;;;;;4925286;28;20388;-56
2021/12/11 04:18:12;;;;;;;32.40;17.40;;;-0.80;99.90;;;;;;4944606;28;20049;-55
2021/12/11 04:20:40;;;;;;;29.27;18.60;;;-0.80;99.90;;;;;;4942453;28;20500;-56
2021/12/11 04:23:07;;;;;;;28.07;16.33;;;-0.80;99.90;;;;;;4940580;28;20405;-55
2021/12/11 04:25:34;;;;;;;35.70;21.43;;;-0.70;99.90;;;;;;4953527;28;20614;-54
2021/12/11 04:28:00;;;;;;;35.27;18.37;;;-0.70;99.90;;;;;;4927112;28;20167;-55
2021/12/11 04:30:27;;;;;;;35.60;20.73;;;-0.70;99.90;;;;;;4938033;28;20049;-55
2021/12/11 04:32:55;;;;;;;37.70;20.07;;;-0.70;99.90;;;;;;4942292;28;20050;-53
2021/12/11 04:35:21;;;;;;;30.37;18.20;;;-0.70;99.90;;;;;;4938334;28;20370;-55
2021/12/11 04:37:48;;;;;;;32.93;19.93;;;-0.70;99.90;;;;;;4937638;28;20611;-55
2021/12/11 04:40:20;;;;;;;41.37;20.53;;;-0.70;99.90;;;;;;4957977;28;20046;-55
2021/12/11 04:45:21;;;;;;;29.00;18.07;;;-0.80;99.90;;;;;;4964122;28;20050;-56
2021/12/11 04:47:57;;;;;;;30.87;17.90;;;-0.70;99.90;;;;;;4964585;28;20049;-56
2021/12/11 04:50:56;;;;;;;29.10;17.93;;;-0.70;99.90;;;;;;4940176;28;20874;-56
2021/12/11 05:06:19;;;;;;;29.67;18.67;;;-0.90;99.90;;;;;;4939795;28;20054;-55
2021/12/11 05:11:45;;;;;;;30.53;18.73;;;-0.90;99.90;;;;;;4958101;28;20140;-56
2021/12/11 05:14:14;;;;;;;28.27;17.17;;;-0.90;99.90;;;;;;4950400;28;20038;-56
2021/12/11 05:16:41;;;;;;;28.67;18.23;;;-0.90;99.90;;;;;;4962482;28;20148;-56
2021/12/11 05:19:07;;;;;;;25.60;16.50;;;-0.90;99.90;;;;;;4959359;28;20392;-55
2021/12/11 05:21:34;;;;;;;31.17;18.27;;;-1.00;99.90;;;;;;4933946;28;20526;-56
2021/12/11 05:24:01;;;;;;;26.67;16.47;;;-1.00;99.90;;;;;;4943770;28;20046;-56
2021/12/11 05:26:27;;;;;;;27.33;16.93;;;-1.00;99.90;;;;;;4953763;28;20069;-54
2021/12/11 05:28:53;;;;;;;31.83;18.37;;;-1.00;99.90;;;;;;4961130;28;20046;-55
2021/12/11 05:31:19;;;;;;;28.57;16.90;;;-1.00;99.90;;;;;;4943916;28;20049;-56
2021/12/11 05:33:46;;;;;;;25.07;16.03;;;-1.00;99.90;;;;;;4937682;28;20904;-56
2021/12/11 05:36:14;;;;;;;30.20;17.57;;;-1.00;99.90;;;;;;4925710;28;21724;-56
2021/12/11 05:38:41;;;;;;;27.53;16.10;;;-1.00;99.90;;;;;;4926114;28;20353;-56
2021/12/11 05:41:12;;;;;;;30.37;17.87;;;-1.00;99.90;;;;;;4944495;28;20042;-56
2021/12/11 05:43:38;;;;;;;33.23;16.17;;;-1.10;99.90;;;;;;4948353;28;20931;-56
2021/12/11 05:46:06;;;;;;;28.20;17.23;;;-1.10;99.90;;;;;;4948192;28;20034;-56
2021/12/11 05:48:32;;;;;;;29.47;16.87;;;-1.10;99.90;;;;;;4943895;28;20645;-56
2021/12/11 05:51:01;;;;;;;29.33;16.60;;;-1.10;99.90;;;;;;4947296;28;20041;-56
2021/12/11 05:53:31;;;;;;;31.33;17.20;;;-1.20;99.90;;;;;;4949031;28;20058;-56
2021/12/11 05:55:58;;;;;;;30.90;17.00;;;-1.20;99.90;;;;;;4963005;28;20050;-56
2021/12/11 05:58:45;;;;;;;28.30;17.07;;;-1.20;99.90;;;;;;4942523;28;20061;-56
2021/12/11 06:01:10;;;;;;;28.47;16.50;;;-1.10;99.90;;;;;;4962557;28;20127;-56
2021/12/11 06:03:37;;;;;;;29.40;17.57;;;-1.20;99.90;;;;;;4939321;28;20513;-57
2021/12/11 06:06:04;;;;;;;33.43;17.77;;;-1.20;99.90;;;;;;4931313;28;20214;-58
2021/12/11 06:08:31;;;;;;;31.40;18.33;;;-1.20;99.90;;;;;;4933581;28;20073;-56
2021/12/11 06:10:58;;;;;;;30.53;17.27;;;-1.20;99.90;;;;;;4948330;28;20626;-56
2021/12/11 06:13:25;;;;;;;27.87;15.93;;;-1.20;99.90;;;;;;4960264;28;20240;-55
2021/12/11 06:15:52;;;;;;;26.40;15.63;;;-1.20;99.90;;;;;;4948813;28;20051;-56
2021/12/11 06:18:19;;;;;;;28.87;17.90;;;-1.30;99.90;;;;;;4958359;28;20188;-56
2021/12/11 06:20:47;;;;;;;24.37;14.97;;;-1.20;99.90;;;;;;4959372;28;20138;-57
2021/12/11 06:23:17;;;;;;;29.87;16.40;;;-1.20;99.90;;;;;;4960568;28;20058;-57
2021/12/11 06:25:43;;;;;;;28.73;16.90;;;-1.20;99.90;;;;;;4929198;28;20142;-55
2021/12/11 06:28:09;;;;;;;24.00;15.20;;;-1.20;99.90;;;;;;4933113;28;20053;-57
2021/12/11 06:30:38;;;;;;;23.30;14.37;;;-1.20;99.90;;;;;;4943432;28;20359;-55
2021/12/11 06:33:05;;;;;;;25.90;15.73;;;-1.20;99.90;;;;;;4967375;28;20045;-56
2021/12/11 06:35:40;;;;;;;33.37;18.30;;;-1.20;99.90;;;;;;4967134;28;20121;-56
2021/12/11 06:38:09;;;;;;;28.10;17.27;;;-1.30;99.90;;;;;;4987749;28;20042;-56
2021/12/11 06:40:35;;;;;;;32.43;18.83;;;-1.30;99.90;;;;;;4969599;28;20057;-56
2021/12/11 06:43:01;;;;;;;33.40;19.43;;;-1.30;99.90;;;;;;4957778;28;20046;-57
2021/12/11 06:45:27;;;;;;;27.40;16.90;;;-1.30;99.90;;;;;;4968432;28;20052;-55
2021/12/11 06:47:54;;;;;;;30.77;18.03;;;-1.30;99.90;;;;;;4966688;28;20041;-57
2021/12/11 06:50:20;;;;;;;30.00;17.77;;;-1.30;99.90;;;;;;4958065;28;20049;-55
2021/12/11 06:52:47;;;;;;;32.67;19.00;;;-1.30;99.90;;;;;;4957488;28;20323;-57
2021/12/11 06:55:14;;;;;;;26.47;16.70;;;-1.40;99.90;;;;;;4986515;28;20054;-56
2021/12/11 06:57:40;;;;;;;24.90;16.57;;;-1.40;99.90;;;;;;4957213;28;20149;-55
2021/12/11 07:00:07;;;;;;;30.40;17.90;;;-1.40;99.90;;;;;;4980572;28;20121;-57
2021/12/11 07:02:33;;;;;;;28.67;16.53;;;-1.40;99.90;;;;;;4976959;28;20046;-57
2021/12/11 07:04:59;;;;;;;28.30;18.07;;;-1.40;99.90;;;;;;4990084;28;21271;-57
2021/12/11 07:07:31;;;;;;;31.33;17.23;;;-1.40;99.90;;;;;;4996806;23;20045;-61
2021/12/11 07:09:57;;;;;;;26.83;16.10;;;-1.40;99.90;;;;;;5010128;28;20073;-61
2021/12/11 07:12:25;;;;;;;27.93;16.27;;;-1.40;99.90;;;;;;4999189;28;20061;-61
2021/12/11 07:14:52;;;;;;;29.60;17.70;;;-1.40;99.90;;;;;;4984331;28;20042;-61
2021/12/11 07:17:18;;;;;;;29.50;17.73;;;-1.40;99.90;;;;;;4971890;28;20862;-61
2021/12/11 07:19:44;;;;;;;34.97;19.17;;;-1.40;99.90;;;;;;4993501;28;20732;-61
2021/12/11 07:22:11;;;;;;;31.20;18.90;;;-1.40;99.90;;;;;;4991803;28;20049;-61
2021/12/11 07:24:43;;;;;;;29.07;19.67;;;-1.40;99.90;;;;;;4991706;28;20076;-62
2021/12/11 07:27:10;;;;;;;35.30;19.27;;;-1.40;99.90;;;;;;4997776;28;20052;-61
2021/12/11 07:29:37;;;;;;;30.97;19.80;;;-1.40;99.90;;;;;;5002790;28;20106;-61
2021/12/11 07:32:04;;;;;;;33.00;19.97;;;-1.40;99.90;;;;;;4964536;28;20046;-61
2021/12/11 07:34:30;;;;;;;28.43;17.53;;;-1.40;99.90;;;;;;4994552;28;20045;-62
2021/12/11 07:36:58;;;;;;;34.07;20.67;;;-1.40;99.90;;;;;;4952129;28;20077;-62
2021/12/11 07:39:24;;;;;;;39.20;19.97;;;-1.40;99.90;;;;;;4966959;28;20488;-62
2021/12/11 07:41:53;;;;;;;34.27;20.87;;;-1.40;99.90;;;;;;4973024;28;20045;-63
2021/12/11 07:44:19;;;;;;;34.83;20.67;;;-1.40;99.90;;;;;;4987625;28;20049;-62
2021/12/11 07:46:45;;;;;;;31.77;19.73;;;-1.40;99.90;;;;;;4961666;28;20042;-62
2021/12/11 07:49:11;;;;;;;34.90;20.43;;;-1.40;99.90;;;;;;4947660;28;20397;-62
2021/12/11 07:51:38;;;;;;;37.63;20.70;;;-1.40;99.90;;;;;;4969414;28;20049;-62
2021/12/11 07:54:06;;;;;;;33.63;21.50;;;-1.40;99.90;;;;;;4982600;28;20081;-62
2021/12/11 07:56:31;;;;;;;33.20;18.23;;;-1.30;99.90;;;;;;4969916;28;20030;-62
2021/12/11 07:59:00;;;;;;;41.53;22.50;;;-1.30;99.90;;;;;;4994411;28;20555;-62
2021/12/11 08:01:28;;;;;;;37.00;21.27;;;-1.30;99.90;;;;;;4986711;28;20105;-61
2021/12/11 08:03:57;;;;;;;38.33;19.97;;;-1.20;99.90;;;;;;4984988;28;20041;-61
2021/12/11 08:06:23;;;;;;;40.60;21.30;;;-1.20;99.90;;;;;;4984656;28;20154;-61
2021/12/11 08:08:49;;;;;;;34.97;20.23;;;-1.20;99.90;;;;;;5001712;28;20505;-62
2021/12/11 08:11:17;;;;;;;33.63;17.73;;;-1.20;99.90;;;;;;4996530;28;20105;-62
2021/12/11 08:13:49;;;;;;;35.43;20.63;;;-1.10;99.90;;;;;;5013613;28;20550;-62
2021/12/11 08:16:20;;;;;;;34.53;18.73;;;-1.10;99.90;;;;;;4976777;28;20060;-62
2021/12/11 08:18:46;;;;;;;31.93;19.47;;;-1.20;99.90;;;;;;5004657;28;20080;-62
2021/12/11 08:21:12;;;;;;;30.80;18.67;;;-1.10;99.90;;;;;;4973381;28;20171;-62
2021/12/11 08:23:43;;;;;;;36.77;20.20;;;-1.10;99.90;;;;;;4994773;28;20049;-62
2021/12/11 08:26:15;;;;;;;37.20;19.43;;;-1.10;99.90;;;;;;5005176;28;20207;-63
2021/12/11 08:28:42;;;;;;;86.77;23.43;;;-1.00;99.90;;;;;;4984706;28;20164;-63
2021/12/11 08:31:08;;;;;;;54.07;22.57;;;-1.00;99.90;;;;;;4966395;28;20087;-63
2021/12/11 08:33:34;;;;;;;83.57;21.83;;;-0.90;99.90;;;;;;4997594;28;20125;-63
2021/12/11 08:36:00;;;;;;;51.60;19.73;;;-0.90;99.90;;;;;;4987930;28;20777;-62
2021/12/11 08:38:27;;;;;;;38.53;20.83;;;-0.90;99.90;;;;;;4978000;28;20050;-63
2021/12/11 08:40:55;;;;;;;32.70;19.90;;;-0.90;99.90;;;;;;4997333;28;20069;-63
2021/12/11 08:43:22;;;;;;;56.17;21.63;;;-0.80;99.90;;;;;;4994006;28;20173;-62
2021/12/11 08:46:08;;;;;;;73.60;21.10;;;-0.80;99.90;;;;;;4994381;28;20561;-63
2021/12/11 08:48:44;;;;;;;66.17;22.90;;;-0.80;99.90;;;;;;5016186;28;20634;-63
2021/12/11 08:51:19;;;;;;;49.07;18.27;;;-0.80;99.90;;;;;;4981584;28;20478;-63
2021/12/11 08:53:45;;;;;;;57.40;19.57;;;-0.70;99.90;;;;;;4983973;28;20038;-64
2021/12/11 08:56:12;;;;;;;81.03;22.33;;;-0.70;99.90;;;;;;5003657;28;20617;-63
2021/12/11 08:58:40;;;;;;;65.27;20.70;;;-0.70;99.90;;;;;;4991291;28;20073;-63
2021/12/11 09:01:51;;;;;;;59.03;24.63;;;-0.70;99.90;;;;;;4989659;28;20045;-62
2021/12/11 09:04:30;;;;;;;140.93;33.23;;;-0.60;99.90;;;;;;4948848;28;20050;-64
2021/12/11 09:07:09;;;;;;;65.83;25.43;;;-0.60;99.90;;;;;;4997235;28;20050;-64
2021/12/11 09:09:56;;;;;;;62.87;24.30;;;-0.60;99.90;;;;;;4996417;28;20413;-64
2021/12/11 09:12:28;;;;;;;44.70;22.77;;;-0.50;99.90;;;;;;4985960;28;20044;-63
2021/12/11 09:15:01;;;;;;;137.10;29.10;;;-0.50;99.90;;;;;;4980144;28;20042;-63
2021/12/11 09:17:30;;;;;;;65.60;24.13;;;-0.50;99.90;;;;;;5007884;28;20103;-63
2021/12/11 09:20:04;;;;;;;62.60;22.73;;;-0.40;99.90;;;;;;5002734;28;20084;-63
2021/12/11 09:22:35;;;;;;;113.35;30.27;;;-0.40;99.90;;;;;;4984971;28;20048;-63
2021/12/11 09:25:19;;;;;;;87.43;25.80;;;-0.40;99.90;;;;;;5008725;28;20647;-64
2021/12/11 09:27:48;;;;;;;81.27;25.47;;;-0.30;99.90;;;;;;4998330;28;20044;-63
2021/12/11 09:30:41;;;;;;;71.97;25.93;;;-0.30;99.90;;;;;;5007572;28;20037;-62
2021/12/11 09:33:16;;;;;;;58.77;25.33;;;-0.30;99.90;;;;;;5002666;28;20485;-63
2021/12/11 09:35:51;;;;;;;60.53;24.77;;;-0.20;99.90;;;;;;5009039;28;20381;-62
2021/12/11 09:38:25;;;;;;;70.53;26.00;;;-0.20;99.90;;;;;;4997937;28;20038;-63
2021/12/11 09:40:54;;;;;;;45.17;24.50;;;-0.10;99.90;;;;;;5010138;28;20142;-63
2021/12/11 09:43:32;;;;;;;54.53;25.77;;;-0.10;99.90;;;;;;4982758;28;20077;-63
2021/12/11 09:45:59;;;;;;;47.33;23.97;;;0.00;99.90;;;;;;4976124;28;20129;-63
2021/12/11 09:48:24;;;;;;;39.10;22.67;;;0.10;99.90;;;;;;4983713;28;20131;-63
2021/12/11 09:51:01;;;;;;;34.60;22.17;;;0.10;99.90;;;;;;4998659;28;21578;-63
2021/12/11 09:53:33;;;;;;;36.20;22.50;;;0.20;99.90;;;;;;4983448;28;20041;-62
2021/12/11 09:56:00;;;;;;;33.13;21.07;;;0.20;99.90;;;;;;4990776;28;20876;-64
2021/12/11 09:58:31;;;;;;;37.63;23.07;;;0.30;99.90;;;;;;4987042;28;20211;-63
2021/12/11 10:01:09;;;;;;;42.50;24.83;;;0.30;99.90;;;;;;4998550;28;20247;-63
2021/12/11 10:03:45;;;;;;;40.13;23.87;;;0.40;99.90;;;;;;4999644;28;20053;-63
2021/12/11 10:06:37;;;;;;;36.40;22.00;;;0.40;99.90;;;;;;4980252;28;20579;-64
2021/12/11 10:09:18;;;;;;;39.47;23.50;;;0.50;99.90;;;;;;4988981;28;20038;-63
2021/12/11 10:12:07;;;;;;;36.90;22.90;;;0.60;99.90;;;;;;4999372;28;20041;-64
2021/12/11 10:14:43;;;;;;;40.33;24.53;;;0.60;99.90;;;;;;4991666;28;20048;-63
2021/12/11 10:17:27;;;;;;;37.37;23.17;;;0.80;99.90;;;;;;4995874;28;20440;-63
2021/12/11 10:19:58;;;;;;;35.40;21.80;;;0.80;99.90;;;;;;4985273;28;20038;-63
2021/12/11 10:22:32;;;;;;;38.40;24.23;;;0.80;99.90;;;;;;4991853;28;20046;-64
2021/12/11 10:25:00;;;;;;;40.87;24.30;;;0.90;99.90;;;;;;4999415;28;20132;-63
2021/12/11 10:27:29;;;;;;;34.80;22.87;;;1.00;99.90;;;;;;5001300;28;20041;-63
2021/12/11 10:29:57;;;;;;;37.13;23.80;;;1.10;99.90;;;;;;4984735;28;20488;-63
2021/12/11 10:32:29;;;;;;;38.53;23.20;;;1.10;99.90;;;;;;4988335;28;20209;-63
2021/12/11 10:34:59;;;;;;;40.40;23.87;;;1.20;99.90;;;;;;4992790;28;20049;-64
2021/12/11 10:37:36;;;;;;;35.78;22.15;;;1.30;99.90;;;;;;4996636;28;20053;-63
2021/12/11 10:40:14;;;;;;;35.70;22.10;;;1.40;99.90;;;;;;4998991;28;20042;-63
2021/12/11 10:42:42;;;;;;;48.35;27.50;;;1.40;99.90;;;;;;4998352;28;20037;-64
2021/12/11 10:45:11;;;;;;;38.45;23.20;;;1.50;99.90;;;;;;4985063;28;20049;-64
2021/12/11 10:47:42;;;;;;;36.13;23.60;;;1.60;99.90;;;;;;4968923;28;20375;-64
2021/12/11 10:50:24;;;;;;;36.55;21.30;;;1.60;99.90;;;;;;4970642;28;20089;-64
2021/12/11 10:52:51;;;;;;;32.47;21.88;;;1.60;99.90;;;;;;4973763;28;20116;-63
2021/12/11 10:55:20;;;;;;;38.33;23.33;;;1.60;99.90;;;;;;4966173;28;20056;-63
2021/12/11 10:57:47;;;;;;;38.35;23.42;;;1.60;99.90;;;;;;4982935;28;20390;-63
2021/12/11 11:00:20;;;;;;;32.38;21.65;;;1.60;99.90;;;;;;4993633;28;20178;-63
2021/12/11 11:02:46;;;;;;;36.00;23.48;;;1.60;99.90;;;;;;4977142;28;20037;-62
2021/12/11 11:05:18;;;;;;;40.80;23.92;;;1.60;99.90;;;;;;4983676;28;20093;-63
2021/12/11 11:07:45;;;;;;;38.67;22.88;;;1.60;99.90;;;;;;4991147;28;20049;-63
2021/12/11 11:10:23;;;;;;;38.80;24.10;;;1.60;99.90;;;;;;4976819;28;20042;-63
2021/12/11 11:12:49;;;;;;;34.65;22.02;;;1.70;99.90;;;;;;4989584;28;20281;-63
2021/12/11 11:15:18;;;;;;;39.05;22.65;;;1.70;99.90;;;;;;4993345;28;20045;-63
2021/12/11 11:17:44;;;;;;;39.20;23.17;;;1.70;99.90;;;;;;5006817;28;20048;-63
2021/12/11 11:20:16;;;;;;;36.88;22.83;;;1.70;99.90;;;;;;4964965;28;20089;-63
2021/12/11 11:22:44;;;;;;;40.20;24.17;;;1.80;99.90;;;;;;4969428;28;20042;-63
2021/12/11 11:25:19;;;;;;;41.47;24.00;;;1.90;99.90;;;;;;4978173;28;21119;-63
2021/12/11 11:27:47;;;;;;;44.60;24.63;;;2.00;99.90;;;;;;4959608;28;20125;-63
2021/12/11 11:30:17;;;;;;;41.05;24.67;;;2.20;99.90;;;;;;4971110;28;20111;-63
2021/12/11 11:32:44;;;;;;;38.97;23.55;;;2.30;99.90;;;;;;4972075;28;20549;-64
2021/12/11 11:35:14;;;;;;;42.30;27.00;;;2.50;99.90;;;;;;4977709;28;20316;-63
2021/12/11 11:37:41;;;;;;;42.53;25.25;;;2.70;99.90;;;;;;4970499;28;20516;-64
2021/12/11 11:40:13;;;;;;;38.85;24.20;;;2.80;99.90;;;;;;4981322;28;20053;-63
2021/12/11 11:42:40;;;;;;;38.05;23.08;;;2.90;99.90;;;;;;4989904;28;20042;-63
2021/12/11 11:45:09;;;;;;;33.92;21.75;;;3.00;99.90;;;;;;4998043;28;20503;-64
2021/12/11 11:47:35;;;;;;;38.03;22.42;;;3.10;99.90;;;;;;5000240;28;20046;-63
2021/12/11 11:50:02;;;;;;;34.35;22.50;;;3.00;99.90;;;;;;4983968;28;20460;-63
2021/12/11 11:52:30;;;;;;;34.78;22.88;;;3.10;99.90;;;;;;4987809;28;20513;-64
2021/12/11 11:55:00;;;;;;;36.47;23.23;;;3.10;99.90;;;;;;4996005;28;20034;-62
2021/12/11 11:57:36;;;;;;;36.35;22.75;;;3.10;99.90;;;;;;4992206;28;20504;-62
2021/12/11 12:00:12;;;;;;;34.53;21.60;;;3.10;99.90;;;;;;4989516;28;20042;-63
2021/12/11 12:02:39;;;;;;;41.55;23.90;;;3.20;99.90;;;;;;4986722;28;20399;-63
2021/12/11 12:05:06;;;;;;;37.00;23.80;;;3.30;99.90;;;;;;4969453;28;20148;-63
2021/12/11 12:07:33;;;;;;;42.85;23.25;;;3.50;99.90;;;;;;4981650;28;20046;-62
2021/12/11 12:10:05;;;;;;;40.47;24.42;;;3.70;99.90;;;;;;4981084;28;20428;-62
2021/12/11 12:12:31;;;;;;;38.70;23.50;;;3.90;99.90;;;;;;4983847;28;20109;-62
2021/12/11 12:14:57;;;;;;;39.95;24.20;;;4.10;99.90;;;;;;4959893;28;20861;-62
2021/12/11 12:17:30;;;;;;;39.13;24.55;;;4.20;99.90;;;;;;4961087;28;20046;-63
2021/12/11 12:19:56;;;;;;;37.28;23.88;;;4.30;99.90;;;;;;4959245;28;20058;-63
2021/12/11 12:22:25;;;;;;;38.55;24.17;;;4.30;99.90;;;;;;4969641;28;20104;-63
2021/12/11 12:24:53;;;;;;;35.30;22.05;;;4.30;99.90;;;;;;4964543;28;20089;-64
2021/12/11 12:27:21;;;;;;;37.13;22.38;;;4.40;99.90;;;;;;4972582;28;20046;-63
2021/12/11 12:29:47;;;;;;;36.53;22.42;;;4.40;99.90;;;;;;4965202;28;20046;-64
2021/12/11 12:32:21;;;;;;;36.42;22.70;;;4.30;99.90;;;;;;4955678;28;20497;-64
2021/12/11 12:34:48;;;;;;;39.63;23.27;;;4.30;99.90;;;;;;4953657;28;20038;-63
2021/12/11 12:37:14;;;;;;;32.83;21.23;;;4.30;99.90;;;;;;4954563;28;20714;-63
2021/12/11 12:39:44;;;;;;;36.50;23.85;;;4.40;99.90;;;;;;4941280;28;20533;-64
2021/12/11 12:42:36;;;;;;;33.28;22.83;;;4.40;99.90;;;;;;4950346;28;20054;-64
2021/12/11 12:45:20;;;;;;;36.88;22.98;;;4.40;99.90;;;;;;4972276;28;20109;-64
2021/12/11 12:47:55;;;;;;;37.10;21.70;;;4.40;99.90;;;;;;4945192;28;20049;-64
2021/12/11 12:50:29;;;;;;;41.05;24.30;;;4.40;99.90;;;;;;4952907;28;20085;-64
2021/12/11 12:52:59;;;;;;;37.10;22.95;;;4.30;99.90;;;;;;4981098;28;20046;-64
2021/12/11 12:55:27;;;;;;;42.45;25.48;;;4.30;99.90;;;;;;4948334;28;21233;-64
2021/12/11 12:57:57;;;;;;;40.00;23.30;;;4.30;99.90;;;;;;4956914;28;20060;-64
2021/12/11 13:00:33;;;;;;;41.53;24.40;;;4.20;99.90;;;;;;4954402;28;20398;-63
2021/12/11 13:03:10;;;;;;;43.95;24.10;;;4.20;99.90;;;;;;4977972;28;20050;-63
2021/12/11 13:05:55;;;;;;;37.70;23.95;;;4.20;99.90;;;;;;4982549;28;20046;-63
2021/12/11 13:08:34;;;;;;;45.92;25.45;;;4.30;99.90;;;;;;5005196;22;20045;-69